sensor_id;sensor_type;location;lat;lon;timestamp;P1;durP1;ratioP1;P2;durP2;ratioP2
11473;SDS011;5793;52.238;13.438;2023-11-21T00:05:27;16.67;;;8.00;;
11473;SDS011;5793;52.238;13.438;2023-11-21T00:07:55;13.47;;;7.93;;
11473;SDS011;5793;52.238;13.438;2023-11-21T00:10:23;18.90;;;7.87;;
11473;SDS011;5793;52.238;13.438;2023-11-21T00:12:51;20.13;;;7.97;;
11473;SDS011;5793;52.238;13.438;2023-11-21T00:15:23;18.07;;;7.97;;
11473;SDS011;5793;52.238;13.438;2023-11-21T00:17:50;19.60;;;8.10;;
11473;SDS011;5793;52.238;13.438;2023-11-21T00:20:18;15.10;;;7.67;;
11473;SDS011;5793;52.238;13.438;2023-11-21T00:22:46;16.67;;;8.27;;
11473;SDS011;5793;52.238;13.438;2023-11-21T00:25:14;24.10;;;9.70;;
11473;SDS011;5793;52.238;13.438;2023-11-21T00:27:44;19.77;;;9.07;;
11473;SDS011;5793;52.238;13.438;2023-11-21T00:30:12;16.20;;;8.63;;
11473;SDS011;5793;52.238;13.438;2023-11-21T00:32:42;18.07;;;9.20;;
11473;SDS011;5793;52.238;13.438;2023-11-21T00:35:10;14.17;;;8.37;;
11473;SDS011;5793;52.238;13.438;2023-11-21T00:37:37;15.47;;;8.70;;
11473;SDS011;5793;52.238;13.438;2023-11-21T00:40:06;13.20;;;8.07;;
11473;SDS011;5793;52.238;13.438;2023-11-21T00:42:35;13.10;;;8.33;;
11473;SDS011;5793;52.238;13.438;2023-11-21T00:45:03;13.00;;;7.50;;
11473;SDS011;5793;52.238;13.438;2023-11-21T00:47:32;14.83;;;6.97;;
11473;SDS011;5793;52.238;13.438;2023-11-21T00:50:01;9.37;;;6.20;;
11473;SDS011;5793;52.238;13.438;2023-11-21T00:52:32;9.80;;;6.57;;
11473;SDS011;5793;52.238;13.438;2023-11-21T00:55:00;10.40;;;6.63;;
11473;SDS011;5793;52.238;13.438;2023-11-21T00:57:29;10.03;;;6.80;;
11473;SDS011;5793;52.238;13.438;2023-11-21T00:59:56;14.43;;;6.00;;
11473;SDS011;5793;52.238;13.438;2023-11-21T01:02:24;9.23;;;5.83;;
11473;SDS011;5793;52.238;13.438;2023-11-21T01:04:52;8.70;;;6.00;;
11473;SDS011;5793;52.238;13.438;2023-11-21T01:07:21;8.77;;;5.73;;
11473;SDS011;5793;52.238;13.438;2023-11-21T01:09:50;13.07;;;7.10;;
11473;SDS011;5793;52.238;13.438;2023-11-21T01:12:18;10.97;;;6.70;;
11473;SDS011;5793;52.238;13.438;2023-11-21T01:14:46;13.47;;;7.03;;
11473;SDS011;5793;52.238;13.438;2023-11-21T01:17:13;8.43;;;6.40;;
11473;SDS011;5793;52.238;13.438;2023-11-21T01:19:41;11.17;;;6.57;;
11473;SDS011;5793;52.238;13.438;2023-11-21T01:22:09;6.90;;;5.33;;
11473;SDS011;5793;52.238;13.438;2023-11-21T01:24:39;8.70;;;5.23;;
11473;SDS011;5793;52.238;13.438;2023-11-21T01:27:07;12.00;;;5.13;;
11473;SDS011;5793;52.238;13.438;2023-11-21T01:29:35;5.57;;;4.23;;
11473;SDS011;5793;52.238;13.438;2023-11-21T01:32:03;6.37;;;4.10;;
11473;SDS011;5793;52.238;13.438;2023-11-21T01:34:31;5.30;;;3.90;;
11473;SDS011;5793;52.238;13.438;2023-11-21T01:36:59;5.47;;;4.27;;
11473;SDS011;5793;52.238;13.438;2023-11-21T01:39:27;8.90;;;4.03;;
11473;SDS011;5793;52.238;13.438;2023-11-21T01:41:57;5.70;;;4.30;;
11473;SDS011;5793;52.238;13.438;2023-11-21T01:44:25;5.63;;;4.37;;
11473;SDS011;5793;52.238;13.438;2023-11-21T01:46:53;7.53;;;5.50;;
11473;SDS011;5793;52.238;13.438;2023-11-21T01:49:20;8.10;;;6.60;;
11473;SDS011;5793;52.238;13.438;2023-11-21T01:51:49;8.80;;;6.70;;
11473;SDS011;5793;52.238;13.438;2023-11-21T01:54:18;11.47;;;7.87;;
11473;SDS011;5793;52.238;13.438;2023-11-21T01:56:47;12.10;;;8.00;;
11473;SDS011;5793;52.238;13.438;2023-11-21T01:59:18;10.37;;;7.73;;
11473;SDS011;5793;52.238;13.438;2023-11-21T02:01:48;12.23;;;8.43;;
11473;SDS011;5793;52.238;13.438;2023-11-21T02:04:17;14.63;;;9.33;;
11473;SDS011;5793;52.238;13.438;2023-11-21T02:06:50;11.33;;;8.60;;
11473;SDS011;5793;52.238;13.438;2023-11-21T02:09:22;12.30;;;9.50;;
11473;SDS011;5793;52.238;13.438;2023-11-21T02:11:52;13.27;;;9.77;;
11473;SDS011;5793;52.238;13.438;2023-11-21T02:14:25;14.47;;;10.10;;
11473;SDS011;5793;52.238;13.438;2023-11-21T02:16:54;13.67;;;9.80;;
11473;SDS011;5793;52.238;13.438;2023-11-21T02:19:23;17.57;;;10.73;;
11473;SDS011;5793;52.238;13.438;2023-11-21T02:21:52;15.03;;;10.67;;
11473;SDS011;5793;52.238;13.438;2023-11-21T02:24:22;20.13;;;12.13;;
11473;SDS011;5793;52.238;13.438;2023-11-21T02:26:51;21.07;;;13.57;;
11473;SDS011;5793;52.238;13.438;2023-11-21T02:29:18;18.87;;;12.90;;
11473;SDS011;5793;52.238;13.438;2023-11-21T02:31:49;21.47;;;13.77;;
11473;SDS011;5793;52.238;13.438;2023-11-21T02:34:21;22.10;;;13.70;;
11473;SDS011;5793;52.238;13.438;2023-11-21T02:36:50;19.63;;;12.50;;
11473;SDS011;5793;52.238;13.438;2023-11-21T02:39:18;18.60;;;13.30;;
11473;SDS011;5793;52.238;13.438;2023-11-21T02:41:49;21.37;;;13.53;;
11473;SDS011;5793;52.238;13.438;2023-11-21T02:44:17;18.97;;;12.80;;
11473;SDS011;5793;52.238;13.438;2023-11-21T02:46:45;19.60;;;13.33;;
11473;SDS011;5793;52.238;13.438;2023-11-21T02:49:13;19.70;;;12.83;;
11473;SDS011;5793;52.238;13.438;2023-11-21T02:51:41;21.93;;;13.50;;
11473;SDS011;5793;52.238;13.438;2023-11-21T02:54:11;21.07;;;13.23;;
11473;SDS011;5793;52.238;13.438;2023-11-21T02:56:39;23.67;;;13.93;;
11473;SDS011;5793;52.238;13.438;2023-11-21T02:59:08;22.13;;;13.60;;
11473;SDS011;5793;52.238;13.438;2023-11-21T03:01:36;25.67;;;13.87;;
11473;SDS011;5793;52.238;13.438;2023-11-21T03:04:04;23.07;;;14.47;;
11473;SDS011;5793;52.238;13.438;2023-11-21T03:06:33;25.87;;;15.13;;
11473;SDS011;5793;52.238;13.438;2023-11-21T03:09:01;22.37;;;14.13;;
11473;SDS011;5793;52.238;13.438;2023-11-21T03:11:29;27.87;;;14.60;;
11473;SDS011;5793;52.238;13.438;2023-11-21T03:13:56;26.33;;;15.87;;
11473;SDS011;5793;52.238;13.438;2023-11-21T03:16:26;27.30;;;15.37;;
11473;SDS011;5793;52.238;13.438;2023-11-21T03:18:53;26.90;;;14.93;;
11473;SDS011;5793;52.238;13.438;2023-11-21T03:21:21;22.07;;;14.10;;
11473;SDS011;5793;52.238;13.438;2023-11-21T03:23:49;22.47;;;13.53;;
11473;SDS011;5793;52.238;13.438;2023-11-21T03:26:17;24.20;;;14.50;;
11473;SDS011;5793;52.238;13.438;2023-11-21T03:28:44;22.23;;;12.67;;
11473;SDS011;5793;52.238;13.438;2023-11-21T03:31:13;25.00;;;13.17;;
11473;SDS011;5793;52.238;13.438;2023-11-21T03:33:43;20.43;;;12.17;;
11473;SDS011;5793;52.238;13.438;2023-11-21T03:36:11;19.83;;;11.23;;
11473;SDS011;5793;52.238;13.438;2023-11-21T03:38:41;18.80;;;10.97;;
11473;SDS011;5793;52.238;13.438;2023-11-21T03:41:08;17.73;;;9.93;;
11473;SDS011;5793;52.238;13.438;2023-11-21T03:43:37;19.47;;;9.77;;
11473;SDS011;5793;52.238;13.438;2023-11-21T03:46:05;17.80;;;9.93;;
11473;SDS011;5793;52.238;13.438;2023-11-21T03:48:33;20.73;;;10.20;;
11473;SDS011;5793;52.238;13.438;2023-11-21T03:51:03;15.57;;;9.87;;
11473;SDS011;5793;52.238;13.438;2023-11-21T03:53:31;17.93;;;10.70;;
11473;SDS011;5793;52.238;13.438;2023-11-21T03:55:59;14.60;;;9.30;;
11473;SDS011;5793;52.238;13.438;2023-11-21T03:58:29;15.40;;;9.83;;
11473;SDS011;5793;52.238;13.438;2023-11-21T04:00:57;16.87;;;10.47;;
11473;SDS011;5793;52.238;13.438;2023-11-21T04:03:25;16.40;;;9.77;;
11473;SDS011;5793;52.238;13.438;2023-11-21T04:05:53;16.00;;;9.83;;
11473;SDS011;5793;52.238;13.438;2023-11-21T04:08:22;16.43;;;10.37;;
11473;SDS011;5793;52.238;13.438;2023-11-21T04:10:51;17.37;;;10.17;;
11473;SDS011;5793;52.238;13.438;2023-11-21T04:13:20;14.03;;;9.83;;
11473;SDS011;5793;52.238;13.438;2023-11-21T04:15:47;16.13;;;9.90;;
11473;SDS011;5793;52.238;13.438;2023-11-21T04:18:15;24.03;;;11.80;;
11473;SDS011;5793;52.238;13.438;2023-11-21T04:20:43;19.40;;;10.33;;
11473;SDS011;5793;52.238;13.438;2023-11-21T04:23:11;21.77;;;11.50;;
11473;SDS011;5793;52.238;13.438;2023-11-21T04:25:41;24.37;;;12.20;;
11473;SDS011;5793;52.238;13.438;2023-11-21T04:28:09;19.03;;;11.47;;
11473;SDS011;5793;52.238;13.438;2023-11-21T04:30:36;19.37;;;10.97;;
11473;SDS011;5793;52.238;13.438;2023-11-21T04:33:05;17.50;;;10.97;;
11473;SDS011;5793;52.238;13.438;2023-11-21T04:35:34;16.50;;;10.77;;
11473;SDS011;5793;52.238;13.438;2023-11-21T04:38:01;14.17;;;10.33;;
11473;SDS011;5793;52.238;13.438;2023-11-21T04:40:29;18.73;;;11.10;;
11473;SDS011;5793;52.238;13.438;2023-11-21T04:42:58;14.83;;;10.33;;
11473;SDS011;5793;52.238;13.438;2023-11-21T04:45:26;18.80;;;10.70;;
11473;SDS011;5793;52.238;13.438;2023-11-21T04:47:54;14.90;;;10.43;;
11473;SDS011;5793;52.238;13.438;2023-11-21T04:50:22;15.37;;;10.43;;
11473;SDS011;5793;52.238;13.438;2023-11-21T04:52:52;14.87;;;10.37;;
11473;SDS011;5793;52.238;13.438;2023-11-21T04:55:20;12.90;;;9.30;;
11473;SDS011;5793;52.238;13.438;2023-11-21T04:57:48;14.20;;;9.93;;
11473;SDS011;5793;52.238;13.438;2023-11-21T05:00:17;16.20;;;10.53;;
11473;SDS011;5793;52.238;13.438;2023-11-21T05:02:46;14.27;;;10.23;;
11473;SDS011;5793;52.238;13.438;2023-11-21T05:05:14;12.70;;;9.17;;
11473;SDS011;5793;52.238;13.438;2023-11-21T05:07:42;12.37;;;9.57;;
11473;SDS011;5793;52.238;13.438;2023-11-21T05:10:10;11.13;;;8.10;;
11473;SDS011;5793;52.238;13.438;2023-11-21T05:12:39;12.03;;;8.47;;
11473;SDS011;5793;52.238;13.438;2023-11-21T05:15:08;10.60;;;7.40;;
11473;SDS011;5793;52.238;13.438;2023-11-21T05:17:38;12.13;;;7.43;;
11473;SDS011;5793;52.238;13.438;2023-11-21T05:20:09;11.33;;;8.20;;
11473;SDS011;5793;52.238;13.438;2023-11-21T05:22:38;10.50;;;7.70;;
11473;SDS011;5793;52.238;13.438;2023-11-21T05:25:08;11.83;;;8.50;;
11473;SDS011;5793;52.238;13.438;2023-11-21T05:27:37;10.17;;;7.90;;
11473;SDS011;5793;52.238;13.438;2023-11-21T05:30:06;10.63;;;7.13;;
11473;SDS011;5793;52.238;13.438;2023-11-21T05:32:35;10.83;;;7.37;;
11473;SDS011;5793;52.238;13.438;2023-11-21T05:35:05;8.27;;;6.83;;
11473;SDS011;5793;52.238;13.438;2023-11-21T05:37:35;12.07;;;8.23;;
11473;SDS011;5793;52.238;13.438;2023-11-21T05:40:05;8.20;;;6.97;;
11473;SDS011;5793;52.238;13.438;2023-11-21T05:42:34;8.13;;;6.63;;
11473;SDS011;5793;52.238;13.438;2023-11-21T05:45:05;8.50;;;6.40;;
11473;SDS011;5793;52.238;13.438;2023-11-21T05:47:36;8.17;;;6.10;;
11473;SDS011;5793;52.238;13.438;2023-11-21T05:50:07;7.90;;;5.93;;
11473;SDS011;5793;52.238;13.438;2023-11-21T05:52:41;7.10;;;6.07;;
11473;SDS011;5793;52.238;13.438;2023-11-21T05:55:10;8.17;;;5.70;;
11473;SDS011;5793;52.238;13.438;2023-11-21T05:57:40;7.57;;;5.77;;
11473;SDS011;5793;52.238;13.438;2023-11-21T06:00:10;9.77;;;5.60;;
11473;SDS011;5793;52.238;13.438;2023-11-21T06:02:41;7.77;;;5.53;;
11473;SDS011;5793;52.238;13.438;2023-11-21T06:05:10;7.37;;;5.87;;
11473;SDS011;5793;52.238;13.438;2023-11-21T06:07:38;8.57;;;5.87;;
11473;SDS011;5793;52.238;13.438;2023-11-21T06:10:10;7.03;;;5.17;;
11473;SDS011;5793;52.238;13.438;2023-11-21T06:12:41;7.67;;;5.50;;
11473;SDS011;5793;52.238;13.438;2023-11-21T06:15:10;6.73;;;5.67;;
11473;SDS011;5793;52.238;13.438;2023-11-21T06:17:40;7.00;;;5.23;;
11473;SDS011;5793;52.238;13.438;2023-11-21T06:20:10;5.93;;;4.80;;
11473;SDS011;5793;52.238;13.438;2023-11-21T06:22:41;8.23;;;5.03;;
11473;SDS011;5793;52.238;13.438;2023-11-21T06:25:10;7.73;;;5.17;;
11473;SDS011;5793;52.238;13.438;2023-11-21T06:27:40;6.53;;;5.10;;
11473;SDS011;5793;52.238;13.438;2023-11-21T06:30:09;6.30;;;5.07;;
11473;SDS011;5793;52.238;13.438;2023-11-21T06:32:38;8.93;;;5.57;;
11473;SDS011;5793;52.238;13.438;2023-11-21T06:35:07;9.70;;;6.23;;
11473;SDS011;5793;52.238;13.438;2023-11-21T06:37:37;8.40;;;6.63;;
11473;SDS011;5793;52.238;13.438;2023-11-21T06:40:06;7.83;;;5.63;;
11473;SDS011;5793;52.238;13.438;2023-11-21T06:42:36;9.70;;;6.87;;
11473;SDS011;5793;52.238;13.438;2023-11-21T06:45:05;8.27;;;6.73;;
11473;SDS011;5793;52.238;13.438;2023-11-21T06:47:33;10.57;;;7.10;;
11473;SDS011;5793;52.238;13.438;2023-11-21T06:50:01;7.33;;;6.07;;
11473;SDS011;5793;52.238;13.438;2023-11-21T06:52:30;8.17;;;6.50;;
11473;SDS011;5793;52.238;13.438;2023-11-21T06:54:59;9.90;;;6.53;;
11473;SDS011;5793;52.238;13.438;2023-11-21T06:57:27;9.63;;;6.53;;
11473;SDS011;5793;52.238;13.438;2023-11-21T06:59:54;8.30;;;6.27;;
11473;SDS011;5793;52.238;13.438;2023-11-21T07:02:23;8.87;;;6.30;;
11473;SDS011;5793;52.238;13.438;2023-11-21T07:04:51;10.70;;;6.57;;
11473;SDS011;5793;52.238;13.438;2023-11-21T07:07:19;9.10;;;6.63;;
11473;SDS011;5793;52.238;13.438;2023-11-21T07:09:47;8.70;;;7.03;;
11473;SDS011;5793;52.238;13.438;2023-11-21T07:12:16;9.30;;;6.57;;
11473;SDS011;5793;52.238;13.438;2023-11-21T07:14:44;8.97;;;6.47;;
11473;SDS011;5793;52.238;13.438;2023-11-21T07:17:12;7.57;;;6.10;;
11473;SDS011;5793;52.238;13.438;2023-11-21T07:19:40;8.93;;;6.47;;
11473;SDS011;5793;52.238;13.438;2023-11-21T07:22:08;8.70;;;6.50;;
11473;SDS011;5793;52.238;13.438;2023-11-21T07:24:37;12.97;;;6.67;;
11473;SDS011;5793;52.238;13.438;2023-11-21T07:27:04;7.47;;;6.10;;
11473;SDS011;5793;52.238;13.438;2023-11-21T07:29:33;8.57;;;6.20;;
11473;SDS011;5793;52.238;13.438;2023-11-21T07:32:01;7.50;;;5.73;;
11473;SDS011;5793;52.238;13.438;2023-11-21T07:34:29;8.63;;;6.00;;
11473;SDS011;5793;52.238;13.438;2023-11-21T07:36:57;7.97;;;5.87;;
11473;SDS011;5793;52.238;13.438;2023-11-21T07:39:25;8.93;;;6.03;;
11473;SDS011;5793;52.238;13.438;2023-11-21T07:41:53;8.23;;;5.60;;
11473;SDS011;5793;52.238;13.438;2023-11-21T07:44:21;6.53;;;5.43;;
11473;SDS011;5793;52.238;13.438;2023-11-21T07:46:50;7.60;;;5.67;;
11473;SDS011;5793;52.238;13.438;2023-11-21T07:49:18;7.10;;;5.70;;
11473;SDS011;5793;52.238;13.438;2023-11-21T07:51:47;8.90;;;6.00;;
11473;SDS011;5793;52.238;13.438;2023-11-21T07:54:15;9.00;;;6.03;;
11473;SDS011;5793;52.238;13.438;2023-11-21T07:56:43;6.40;;;5.10;;
11473;SDS011;5793;52.238;13.438;2023-11-21T07:59:11;5.50;;;4.83;;
11473;SDS011;5793;52.238;13.438;2023-11-21T08:01:40;7.13;;;5.33;;
11473;SDS011;5793;52.238;13.438;2023-11-21T08:04:11;6.10;;;5.00;;
11473;SDS011;5793;52.238;13.438;2023-11-21T08:06:39;8.00;;;5.00;;
11473;SDS011;5793;52.238;13.438;2023-11-21T08:09:08;6.83;;;5.47;;
11473;SDS011;5793;52.238;13.438;2023-11-21T08:11:38;5.77;;;4.93;;
11473;SDS011;5793;52.238;13.438;2023-11-21T08:14:06;6.93;;;5.10;;
11473;SDS011;5793;52.238;13.438;2023-11-21T08:16:34;7.37;;;5.37;;
11473;SDS011;5793;52.238;13.438;2023-11-21T08:19:02;5.93;;;4.77;;
11473;SDS011;5793;52.238;13.438;2023-11-21T08:21:31;6.40;;;5.13;;
11473;SDS011;5793;52.238;13.438;2023-11-21T08:23:59;7.37;;;5.20;;
11473;SDS011;5793;52.238;13.438;2023-11-21T08:26:26;7.73;;;5.83;;
11473;SDS011;5793;52.238;13.438;2023-11-21T08:28:54;8.03;;;5.40;;
11473;SDS011;5793;52.238;13.438;2023-11-21T08:31:23;9.77;;;5.20;;
11473;SDS011;5793;52.238;13.438;2023-11-21T08:33:52;9.10;;;5.50;;
11473;SDS011;5793;52.238;13.438;2023-11-21T08:36:21;10.43;;;5.50;;
11473;SDS011;5793;52.238;13.438;2023-11-21T08:38:50;9.30;;;5.60;;
11473;SDS011;5793;52.238;13.438;2023-11-21T08:41:19;9.13;;;5.30;;
11473;SDS011;5793;52.238;13.438;2023-11-21T08:43:47;10.93;;;6.20;;
11473;SDS011;5793;52.238;13.438;2023-11-21T08:46:16;13.77;;;7.27;;
11473;SDS011;5793;52.238;13.438;2023-11-21T08:48:45;16.13;;;7.67;;
11473;SDS011;5793;52.238;13.438;2023-11-21T08:51:13;15.57;;;7.70;;
11473;SDS011;5793;52.238;13.438;2023-11-21T08:53:42;12.53;;;6.57;;
11473;SDS011;5793;52.238;13.438;2023-11-21T08:56:13;14.13;;;6.87;;
11473;SDS011;5793;52.238;13.438;2023-11-21T08:58:41;11.70;;;6.77;;
11473;SDS011;5793;52.238;13.438;2023-11-21T09:01:09;13.63;;;7.13;;
11473;SDS011;5793;52.238;13.438;2023-11-21T09:03:38;13.90;;;7.13;;
11473;SDS011;5793;52.238;13.438;2023-11-21T09:06:07;12.63;;;7.20;;
11473;SDS011;5793;52.238;13.438;2023-11-21T09:08:36;11.57;;;6.43;;
11473;SDS011;5793;52.238;13.438;2023-11-21T09:11:04;16.23;;;7.50;;
11473;SDS011;5793;52.238;13.438;2023-11-21T09:13:33;15.97;;;7.70;;
11473;SDS011;5793;52.238;13.438;2023-11-21T09:16:02;16.10;;;7.17;;
11473;SDS011;5793;52.238;13.438;2023-11-21T09:18:31;15.00;;;7.83;;
11473;SDS011;5793;52.238;13.438;2023-11-21T09:20:59;13.60;;;7.93;;
11473;SDS011;5793;52.238;13.438;2023-11-21T09:23:27;16.40;;;7.70;;
11473;SDS011;5793;52.238;13.438;2023-11-21T09:25:55;16.70;;;8.40;;
11473;SDS011;5793;52.238;13.438;2023-11-21T09:28:26;14.00;;;7.63;;
11473;SDS011;5793;52.238;13.438;2023-11-21T09:30:55;16.90;;;8.77;;
11473;SDS011;5793;52.238;13.438;2023-11-21T09:33:23;13.80;;;8.37;;
11473;SDS011;5793;52.238;13.438;2023-11-21T09:35:51;16.60;;;8.87;;
11473;SDS011;5793;52.238;13.438;2023-11-21T09:38:19;17.33;;;8.07;;
11473;SDS011;5793;52.238;13.438;2023-11-21T09:40:47;13.77;;;7.57;;
11473;SDS011;5793;52.238;13.438;2023-11-21T09:43:16;12.87;;;7.23;;
11473;SDS011;5793;52.238;13.438;2023-11-21T09:45:45;10.87;;;6.63;;
11473;SDS011;5793;52.238;13.438;2023-11-21T09:48:15;9.17;;;6.17;;
11473;SDS011;5793;52.238;13.438;2023-11-21T09:50:44;8.07;;;5.57;;
11473;SDS011;5793;52.238;13.438;2023-11-21T09:53:18;7.23;;;5.03;;
11473;SDS011;5793;52.238;13.438;2023-11-21T09:55:50;6.87;;;4.10;;
11473;SDS011;5793;52.238;13.438;2023-11-21T09:58:19;7.50;;;4.53;;
11473;SDS011;5793;52.238;13.438;2023-11-21T10:00:52;5.73;;;3.73;;
11473;SDS011;5793;52.238;13.438;2023-11-21T10:03:24;5.50;;;3.40;;
11473;SDS011;5793;52.238;13.438;2023-11-21T10:05:53;4.80;;;3.30;;
11473;SDS011;5793;52.238;13.438;2023-11-21T10:08:25;5.30;;;3.20;;
11473;SDS011;5793;52.238;13.438;2023-11-21T10:11:11;4.17;;;3.20;;
11473;SDS011;5793;52.238;13.438;2023-11-21T10:13:41;4.30;;;3.00;;
11473;SDS011;5793;52.238;13.438;2023-11-21T10:16:12;4.17;;;3.03;;
11473;SDS011;5793;52.238;13.438;2023-11-21T10:18:44;4.43;;;3.00;;
11473;SDS011;5793;52.238;13.438;2023-11-21T10:21:12;3.50;;;2.80;;
11473;SDS011;5793;52.238;13.438;2023-11-21T10:23:40;4.47;;;2.47;;
11473;SDS011;5793;52.238;13.438;2023-11-21T10:26:11;4.87;;;3.30;;
11473;SDS011;5793;52.238;13.438;2023-11-21T10:28:56;4.47;;;3.10;;
11473;SDS011;5793;52.238;13.438;2023-11-21T10:31:25;3.57;;;3.10;;
11473;SDS011;5793;52.238;13.438;2023-11-21T10:33:55;6.00;;;3.27;;
11473;SDS011;5793;52.238;13.438;2023-11-21T10:36:37;4.37;;;3.13;;
11473;SDS011;5793;52.238;13.438;2023-11-21T10:39:05;4.87;;;3.27;;
11473;SDS011;5793;52.238;13.438;2023-11-21T10:41:33;4.53;;;3.20;;
11473;SDS011;5793;52.238;13.438;2023-11-21T10:44:01;5.67;;;3.17;;
11473;SDS011;5793;52.238;13.438;2023-11-21T10:46:30;4.03;;;3.00;;
11473;SDS011;5793;52.238;13.438;2023-11-21T10:49:00;4.00;;;2.97;;
11473;SDS011;5793;52.238;13.438;2023-11-21T10:51:28;4.43;;;3.40;;
11473;SDS011;5793;52.238;13.438;2023-11-21T10:53:56;4.87;;;3.03;;
11473;SDS011;5793;52.238;13.438;2023-11-21T10:56:27;4.67;;;3.10;;
11473;SDS011;5793;52.238;13.438;2023-11-21T10:58:56;3.83;;;3.30;;
11473;SDS011;5793;52.238;13.438;2023-11-21T11:01:26;4.83;;;3.00;;
11473;SDS011;5793;52.238;13.438;2023-11-21T11:03:56;4.53;;;2.50;;
11473;SDS011;5793;52.238;13.438;2023-11-21T11:06:26;4.27;;;2.90;;
11473;SDS011;5793;52.238;13.438;2023-11-21T11:08:55;3.50;;;2.50;;
11473;SDS011;5793;52.238;13.438;2023-11-21T11:11:24;4.83;;;2.50;;
11473;SDS011;5793;52.238;13.438;2023-11-21T11:13:52;3.30;;;2.20;;
11473;SDS011;5793;52.238;13.438;2023-11-21T11:16:21;3.67;;;2.17;;
11473;SDS011;5793;52.238;13.438;2023-11-21T11:18:51;4.40;;;1.93;;
11473;SDS011;5793;52.238;13.438;2023-11-21T11:21:23;2.67;;;2.33;;
11473;SDS011;5793;52.238;13.438;2023-11-21T11:24:04;3.00;;;2.00;;
11473;SDS011;5793;52.238;13.438;2023-11-21T11:26:42;2.43;;;1.97;;
11473;SDS011;5793;52.238;13.438;2023-11-21T11:29:18;4.97;;;2.30;;
11473;SDS011;5793;52.238;13.438;2023-11-21T11:32:00;3.60;;;2.07;;
11473;SDS011;5793;52.238;13.438;2023-11-21T11:34:36;2.73;;;1.90;;
11473;SDS011;5793;52.238;13.438;2023-11-21T11:37:12;2.30;;;2.03;;
11473;SDS011;5793;52.238;13.438;2023-11-21T11:39:41;2.77;;;1.93;;
11473;SDS011;5793;52.238;13.438;2023-11-21T11:42:11;3.70;;;1.90;;
11473;SDS011;5793;52.238;13.438;2023-11-21T11:44:47;4.37;;;2.20;;
11473;SDS011;5793;52.238;13.438;2023-11-21T11:47:22;3.43;;;1.90;;
11473;SDS011;5793;52.238;13.438;2023-11-21T11:49:59;3.40;;;2.37;;
11473;SDS011;5793;52.238;13.438;2023-11-21T11:52:43;2.37;;;2.13;;
11473;SDS011;5793;52.238;13.438;2023-11-21T11:55:13;2.57;;;2.37;;
11473;SDS011;5793;52.238;13.438;2023-11-21T11:57:44;2.90;;;2.50;;
11473;SDS011;5793;52.238;13.438;2023-11-21T12:00:15;3.80;;;2.17;;
11473;SDS011;5793;52.238;13.438;2023-11-21T12:02:45;3.33;;;2.60;;
11473;SDS011;5793;52.238;13.438;2023-11-21T12:05:15;3.23;;;2.33;;
11473;SDS011;5793;52.238;13.438;2023-11-21T12:07:50;3.37;;;2.33;;
11473;SDS011;5793;52.238;13.438;2023-11-21T12:10:20;2.60;;;2.20;;
11473;SDS011;5793;52.238;13.438;2023-11-21T12:12:51;3.37;;;2.40;;
11473;SDS011;5793;52.238;13.438;2023-11-21T12:15:20;3.10;;;2.80;;
11473;SDS011;5793;52.238;13.438;2023-11-21T12:17:48;4.77;;;2.90;;
11473;SDS011;5793;52.238;13.438;2023-11-21T12:20:18;3.53;;;3.00;;
11473;SDS011;5793;52.238;13.438;2023-11-21T12:22:47;3.50;;;3.20;;
11473;SDS011;5793;52.238;13.438;2023-11-21T12:25:18;3.83;;;3.10;;
11473;SDS011;5793;52.238;13.438;2023-11-21T12:27:48;3.27;;;2.97;;
11473;SDS011;5793;52.238;13.438;2023-11-21T12:30:17;2.43;;;2.23;;
11473;SDS011;5793;52.238;13.438;2023-11-21T12:32:48;4.13;;;3.50;;
11473;SDS011;5793;52.238;13.438;2023-11-21T12:35:17;3.67;;;2.80;;
11473;SDS011;5793;52.238;13.438;2023-11-21T12:37:47;3.40;;;3.10;;
11473;SDS011;5793;52.238;13.438;2023-11-21T12:40:18;3.43;;;3.00;;
11473;SDS011;5793;52.238;13.438;2023-11-21T12:42:51;3.33;;;2.80;;
11473;SDS011;5793;52.238;13.438;2023-11-21T12:45:20;3.40;;;3.10;;
11473;SDS011;5793;52.238;13.438;2023-11-21T12:47:53;3.70;;;3.20;;
11473;SDS011;5793;52.238;13.438;2023-11-21T12:50:23;4.40;;;2.80;;
11473;SDS011;5793;52.238;13.438;2023-11-21T12:52:59;5.27;;;4.77;;
11473;SDS011;5793;52.238;13.438;2023-11-21T12:55:30;3.53;;;2.77;;
11473;SDS011;5793;52.238;13.438;2023-11-21T12:58:00;4.03;;;3.50;;
11473;SDS011;5793;52.238;13.438;2023-11-21T13:00:35;3.23;;;2.93;;
11473;SDS011;5793;52.238;13.438;2023-11-21T13:03:05;5.77;;;2.97;;
11473;SDS011;5793;52.238;13.438;2023-11-21T13:05:35;3.43;;;3.10;;
11473;SDS011;5793;52.238;13.438;2023-11-21T13:08:07;3.97;;;3.07;;
11473;SDS011;5793;52.238;13.438;2023-11-21T13:10:38;3.80;;;3.27;;
11473;SDS011;5793;52.238;13.438;2023-11-21T13:13:09;3.37;;;3.07;;
11473;SDS011;5793;52.238;13.438;2023-11-21T13:15:48;3.30;;;3.00;;
11473;SDS011;5793;52.238;13.438;2023-11-21T13:18:16;3.87;;;3.47;;
11473;SDS011;5793;52.238;13.438;2023-11-21T13:20:44;4.13;;;3.30;;
11473;SDS011;5793;52.238;13.438;2023-11-21T13:23:14;4.03;;;3.40;;
11473;SDS011;5793;52.238;13.438;2023-11-21T13:25:43;4.60;;;3.30;;
11473;SDS011;5793;52.238;13.438;2023-11-21T13:28:19;323.80;;;29.37;;
11473;SDS011;5793;52.238;13.438;2023-11-21T13:30:50;4.30;;;3.53;;
11473;SDS011;5793;52.238;13.438;2023-11-21T13:33:19;4.50;;;3.63;;
11473;SDS011;5793;52.238;13.438;2023-11-21T13:35:54;4.10;;;3.60;;
11473;SDS011;5793;52.238;13.438;2023-11-21T13:38:24;4.90;;;3.73;;
11473;SDS011;5793;52.238;13.438;2023-11-21T13:40:58;5.00;;;4.13;;
11473;SDS011;5793;52.238;13.438;2023-11-21T13:43:25;5.57;;;3.80;;
11473;SDS011;5793;52.238;13.438;2023-11-21T13:45:55;4.20;;;3.40;;
11473;SDS011;5793;52.238;13.438;2023-11-21T13:48:27;4.30;;;3.90;;
11473;SDS011;5793;52.238;13.438;2023-11-21T13:51:00;7.13;;;3.90;;
11473;SDS011;5793;52.238;13.438;2023-11-21T13:53:38;4.77;;;3.50;;
11473;SDS011;5793;52.238;13.438;2023-11-21T13:56:07;4.63;;;3.77;;
11473;SDS011;5793;52.238;13.438;2023-11-21T13:58:35;4.47;;;3.77;;
11473;SDS011;5793;52.238;13.438;2023-11-21T14:01:11;4.60;;;4.07;;
11473;SDS011;5793;52.238;13.438;2023-11-21T14:03:55;4.13;;;3.67;;
11473;SDS011;5793;52.238;13.438;2023-11-21T14:06:28;4.77;;;4.07;;
11473;SDS011;5793;52.238;13.438;2023-11-21T14:09:02;5.17;;;4.50;;
11473;SDS011;5793;52.238;13.438;2023-11-21T14:11:31;6.37;;;4.87;;
11473;SDS011;5793;52.238;13.438;2023-11-21T14:14:08;5.00;;;4.50;;
11473;SDS011;5793;52.238;13.438;2023-11-21T14:16:37;6.00;;;4.83;;
11473;SDS011;5793;52.238;13.438;2023-11-21T14:19:05;6.03;;;4.30;;
11473;SDS011;5793;52.238;13.438;2023-11-21T14:21:42;6.47;;;4.20;;
11473;SDS011;5793;52.238;13.438;2023-11-21T14:24:12;5.80;;;5.10;;
11473;SDS011;5793;52.238;13.438;2023-11-21T14:26:41;5.13;;;4.63;;
11473;SDS011;5793;52.238;13.438;2023-11-21T14:29:11;4.60;;;4.03;;
11473;SDS011;5793;52.238;13.438;2023-11-21T14:31:40;5.63;;;4.57;;
11473;SDS011;5793;52.238;13.438;2023-11-21T14:34:09;6.03;;;4.70;;
11473;SDS011;5793;52.238;13.438;2023-11-21T14:36:39;6.40;;;4.60;;
11473;SDS011;5793;52.238;13.438;2023-11-21T14:39:07;6.07;;;5.10;;
11473;SDS011;5793;52.238;13.438;2023-11-21T14:41:48;5.73;;;4.10;;
11473;SDS011;5793;52.238;13.438;2023-11-21T14:44:16;5.83;;;4.43;;
11473;SDS011;5793;52.238;13.438;2023-11-21T14:46:43;6.10;;;5.50;;
11473;SDS011;5793;52.238;13.438;2023-11-21T14:49:12;7.23;;;5.33;;
11473;SDS011;5793;52.238;13.438;2023-11-21T14:51:46;7.20;;;5.27;;
11473;SDS011;5793;52.238;13.438;2023-11-21T14:54:27;7.20;;;5.70;;
11473;SDS011;5793;52.238;13.438;2023-11-21T14:57:08;6.63;;;5.20;;
11473;SDS011;5793;52.238;13.438;2023-11-21T14:59:43;6.03;;;5.07;;